Time;durP1;ratioP1;P1;durP2;ratioP2;P2;SDS_P1;SDS_P2;PMS_P1;PMS_P2;Temp;Humidity;BMP_temperature;BMP_pressure;BME280_temperature;BME280_humidity;BME280_pressure;Samples;Min_cycle;Max_cycle;Signal;HPM_P1;HPM_P2
2023/01/13 00:02:09;;;;;;;61.37;57.37;;;9.30;92.80;;;;;;4995561;28;20202;-89
2023/01/13 00:04:35;;;;;;;59.90;55.90;;;9.20;92.60;;;;;;4994308;28;20688;-88
2023/01/13 00:07:00;;;;;;;54.63;51.33;;;9.20;92.50;;;;;;4995474;28;20170;-89
2023/01/13 00:09:26;;;;;;;53.43;49.90;;;9.10;92.30;;;;;;4994175;28;20181;-88
2023/01/13 00:11:51;;;;;;;58.70;55.00;;;9.00;92.20;;;;;;4995563;28;20170;-89
2023/01/13 00:14:19;;;;;;;61.97;57.53;;;9.00;92.50;;;;;;4995398;28;20248;-89
2023/01/13 00:16:45;;;;;;;75.23;69.93;;;9.00;92.70;;;;;;4994932;28;20182;-89
2023/01/13 00:19:10;;;;;;;79.70;74.50;;;8.90;93.00;;;;;;4994763;28;20184;-89
2023/01/13 00:21:36;;;;;;;84.10;78.37;;;8.90;93.30;;;;;;4993897;28;20206;-89
2023/01/13 00:24:02;;;;;;;83.43;77.63;;;8.80;93.50;;;;;;4994610;28;20214;-89
2023/01/13 00:26:34;;;;;;;82.10;76.53;;;8.90;93.50;;;;;;4995325;28;20591;-89
2023/01/13 00:29:00;;;;;;;71.00;66.10;;;8.90;93.40;;;;;;4994015;28;20217;-89
2023/01/13 00:31:27;;;;;;;76.00;70.60;;;8.90;93.20;;;;;;4993731;28;20265;-89
2023/01/13 00:33:56;;;;;;;83.73;78.23;;;9.00;93.20;;;;;;4994895;28;20198;-90
2023/01/13 00:36:21;;;;;;;90.80;84.80;;;9.00;93.30;;;;;;4995172;28;20174;-89
2023/01/13 00:38:47;;;;;;;97.30;91.20;;;9.00;93.50;;;;;;4994138;28;20201;-89
2023/01/13 00:41:15;;;;;;;99.67;93.20;;;9.00;93.60;;;;;;4994656;28;20232;-89
2023/01/13 00:43:41;;;;;;;98.73;92.60;;;9.00;93.70;;;;;;4993576;28;20209;-89
2023/01/13 00:46:09;;;;;;;98.07;92.07;;;9.00;93.70;;;;;;4993772;28;20174;-90
2023/01/13 00:48:35;;;;;;;88.33;82.73;;;9.00;93.70;;;;;;4993409;28;20659;-89
2023/01/13 00:51:05;;;;;;;67.93;63.77;;;9.00;93.60;;;;;;4993436;28;20184;-89
2023/01/13 00:53:36;;;;;;;62.13;58.40;;;8.90;93.10;;;;;;4993874;28;20292;-89
2023/01/13 00:56:18;;;;;;;49.17;45.80;;;8.90;92.70;;;;;;4993302;28;20182;-90
2023/01/13 00:58:44;;;;;;;38.40;35.80;;;8.90;91.80;;;;;;4994482;28;20174;-89
2023/01/13 01:01:16;;;;;;;40.53;38.07;;;8.90;91.20;;;;;;4994797;28;20178;-89
2023/01/13 01:03:42;;;;;;;40.63;37.97;;;8.80;90.80;;;;;;4994935;28;20244;-89
2023/01/13 01:06:17;;;;;;;37.77;35.27;;;8.80;90.90;;;;;;4994439;28;20174;-89
2023/01/13 01:08:43;;;;;;;35.77;33.17;;;8.80;90.70;;;;;;4994472;28;20571;-89
2023/01/13 01:11:20;;;;;;;35.47;33.10;;;8.70;90.70;;;;;;4994356;28;20257;-89
2023/01/13 01:13:47;;;;;;;33.80;31.43;;;8.70;90.60;;;;;;4993045;28;20198;-89
2023/01/13 01:16:15;;;;;;;35.13;32.53;;;8.60;90.40;;;;;;4993001;28;20174;-89
2023/01/13 01:18:43;;;;;;;33.67;31.57;;;8.60;90.40;;;;;;4994191;28;20660;-89
2023/01/13 01:21:10;;;;;;;33.67;31.03;;;8.60;90.30;;;;;;4992883;28;20648;-89
2023/01/13 01:23:37;;;;;;;34.77;32.20;;;8.50;90.30;;;;;;4992931;28;20279;-89
2023/01/13 01:26:09;;;;;;;34.93;32.53;;;8.60;90.20;;;;;;4992592;28;20546;-88
2023/01/13 01:28:34;;;;;;;34.83;32.00;;;8.50;90.40;;;;;;4992623;28;20174;-89
2023/01/13 01:31:09;;;;;;;38.10;35.00;;;8.50;90.40;;;;;;4992807;28;20180;-89
2023/01/13 01:33:34;;;;;;;39.67;36.77;;;8.50;90.40;;;;;;4993864;28;20188;-90
2023/01/13 01:36:01;;;;;;;38.10;35.40;;;8.40;90.60;;;;;;4993973;28;20180;-90
2023/01/13 01:38:26;;;;;;;37.53;34.30;;;8.30;90.70;;;;;;4993930;28;20175;-90
2023/01/13 01:40:52;;;;;;;37.70;34.90;;;8.40;90.60;;;;;;4992649;28;20229;-90
2023/01/13 01:46:04;;;;;;;36.10;33.07;;;8.30;90.60;;;;;;4994438;28;20546;-89
2023/01/13 01:48:38;;;;;;;36.63;33.93;;;8.30;90.60;;;;;;4993869;28;20264;-90
2023/01/13 01:51:06;;;;;;;36.80;33.90;;;8.30;90.80;;;;;;4992941;28;20216;-89
2023/01/13 01:53:32;;;;;;;37.17;34.17;;;8.30;90.80;;;;;;4993746;28;20194;-89
2023/01/13 01:55:59;;;;;;;37.77;34.87;;;8.30;90.90;;;;;;4992615;28;20189;-89
2023/01/13 01:58:38;;;;;;;38.17;34.70;;;8.20;91.00;;;;;;4993720;28;20706;-90
2023/01/13 02:01:03;;;;;;;33.63;31.00;;;8.20;90.90;;;;;;4992614;28;20181;-90
2023/01/13 02:03:30;;;;;;;36.40;33.53;;;8.30;90.70;;;;;;4992215;28;20210;-90
2023/01/13 02:05:55;;;;;;;35.50;32.17;;;8.30;90.70;;;;;;4992561;28;20221;-90
2023/01/13 02:08:21;;;;;;;32.73;29.43;;;8.20;90.60;;;;;;4993682;28;20198;-90
2023/01/13 02:10:52;;;;;;;37.10;33.60;;;8.30;90.50;;;;;;4993696;28;20173;-90
2023/01/13 02:13:20;;;;;;;34.27;30.90;;;8.20;90.50;;;;;;4993563;28;20198;-90
2023/01/13 02:16:01;;;;;;;32.37;29.60;;;8.20;90.30;;;;;;4992389;28;20623;-90
2023/01/13 02:18:54;;;;;;;33.67;30.30;;;8.30;90.30;;;;;;4993219;28;20261;-89
2023/01/13 02:21:57;;;;;;;34.73;31.13;;;8.20;90.40;;;;;;4992379;28;20174;-90
2023/01/13 02:24:55;;;;;;;30.63;27.43;;;8.20;90.40;;;;;;4992657;28;20586;-90
2023/01/13 02:27:50;;;;;;;31.83;27.13;;;8.20;90.00;;;;;;4993487;28;20159;-90
2023/01/13 02:33:36;;;;;;;30.63;27.30;;;8.30;89.30;;;;;;4994009;28;20205;-90
2023/01/13 02:36:20;;;;;;;33.20;25.90;;;8.30;89.30;;;;;;4993711;28;20170;-90
2023/01/13 02:38:49;;;;;;;38.27;24.93;;;8.30;89.10;;;;;;4995287;28;20202;-90
2023/01/13 02:44:11;;;;;;;38.40;22.30;;;8.20;89.00;;;;;;4997355;28;20225;-89
2023/01/13 02:46:49;;;;;;;33.47;24.13;;;8.20;88.50;;;;;;4995734;28;20178;-90
2023/01/13 02:49:29;;;;;;;28.40;22.17;;;8.20;88.30;;;;;;4995826;28;20535;-90
2023/01/13 02:52:02;;;;;;;33.27;23.73;;;8.20;88.40;;;;;;4995754;28;20159;-90
2023/01/13 02:54:29;;;;;;;28.27;24.93;;;8.10;88.60;;;;;;4995627;28;20253;-90
2023/01/13 02:56:58;;;;;;;28.97;25.37;;;8.00;88.80;;;;;;4996768;28;20167;-90
2023/01/13 02:59:26;;;;;;;33.53;25.20;;;8.00;88.70;;;;;;4996920;28;20162;-90
2023/01/13 03:01:55;;;;;;;41.40;24.80;;;8.00;88.70;;;;;;4995767;28;20202;-90
2023/01/13 03:04:49;;;;;;;35.40;24.97;;;8.00;88.70;;;;;;4996633;28;20193;-90
2023/01/13 03:07:35;;;;;;;31.30;25.87;;;8.00;88.50;;;;;;4992492;28;20687;-90
2023/01/13 03:10:26;;;;;;;29.50;25.63;;;7.90;88.70;;;;;;4995658;28;20166;-90
2023/01/13 03:13:13;;;;;;;35.53;24.53;;;7.90;88.70;;;;;;4996518;28;20217;-90
2023/01/13 03:15:53;;;;;;;44.13;25.03;;;8.00;88.40;;;;;;4996473;28;20182;-89
2023/01/13 03:18:32;;;;;;;29.57;21.00;;;8.00;88.20;;;;;;4995219;28;20174;-90
2023/01/13 03:21:21;;;;;;;29.63;20.37;;;8.00;88.00;;;;;;4995149;28;20628;-89
2023/01/13 03:23:49;;;;;;;38.93;19.97;;;8.20;86.60;;;;;;4996219;28;20206;-90
2023/01/13 03:26:44;;;;;;;28.17;16.13;;;8.20;86.20;;;;;;4994960;28;20652;-90
2023/01/13 03:29:26;;;;;;;36.90;17.27;;;8.30;85.00;;;;;;4995066;28;20269;-89
2023/01/13 03:32:19;;;;;;;28.03;17.60;;;8.30;84.60;;;;;;4996301;28;20166;-89
2023/01/13 03:34:52;;;;;;;36.20;18.53;;;8.20;85.00;;;;;;4994905;28;20296;-89
2023/01/13 03:37:25;;;;;;;27.70;17.87;;;8.10;84.60;;;;;;4994897;28;20174;-90
2023/01/13 03:39:57;;;;;;;30.47;17.17;;;8.10;84.90;;;;;;4995295;28;20321;-89
2023/01/13 03:42:27;;;;;;;28.43;16.83;;;8.20;85.40;;;;;;4995773;28;20308;-90
2023/01/13 03:45:01;;;;;;;23.00;16.53;;;8.10;86.00;;;;;;4995868;28;20675;-90
2023/01/13 03:47:52;;;;;;;25.10;17.57;;;8.10;85.40;;;;;;4995866;28;20158;-89
2023/01/13 03:50:31;;;;;;;36.03;20.40;;;8.10;86.00;;;;;;4995241;28;20182;-89
2023/01/13 03:53:32;;;;;;;30.47;20.37;;;7.90;86.70;;;;;;4994444;28;20202;-90
2023/01/13 03:56:09;;;;;;;41.83;20.17;;;7.90;87.00;;;;;;4952332;28;20552;-90
2023/01/13 03:58:39;;;;;;;35.57;20.30;;;7.80;86.90;;;;;;4994493;28;20264;-89
2023/01/13 04:01:13;;;;;;;27.73;19.37;;;7.90;86.50;;;;;;4994401;28;20559;-89
2023/01/13 04:03:46;;;;;;;41.00;20.17;;;7.80;86.20;;;;;;4994176;28;20726;-89
2023/01/13 04:06:18;;;;;;;34.93;20.03;;;7.80;86.40;;;;;;4995465;28;20162;-89
2023/01/13 04:08:57;;;;;;;30.27;20.20;;;7.70;86.90;;;;;;4995531;28;20166;-90
2023/01/13 04:11:38;;;;;;;35.77;20.43;;;7.70;86.90;;;;;;4994279;28;20170;-90
2023/01/13 04:14:07;;;;;;;35.93;21.03;;;7.60;86.80;;;;;;4995306;28;20190;-90
2023/01/13 04:16:33;;;;;;;30.23;20.17;;;7.50;87.10;;;;;;4995387;28;20171;-89
2023/01/13 04:18:58;;;;;;;32.67;21.20;;;7.50;87.30;;;;;;4995427;28;20212;-90
2023/01/13 04:21:24;;;;;;;35.27;21.90;;;7.60;86.90;;;;;;4995228;28;20225;-89
2023/01/13 04:23:50;;;;;;;39.07;21.37;;;7.40;87.30;;;;;;4994989;28;20737;-89
2023/01/13 04:26:18;;;;;;;27.80;19.83;;;7.40;87.50;;;;;;4995521;28;20170;-89
2023/01/13 04:28:44;;;;;;;32.27;20.07;;;7.40;87.40;;;;;;4995117;28;20205;-89
2023/01/13 04:31:10;;;;;;;30.50;20.10;;;7.40;87.10;;;;;;4995618;28;20178;-89
2023/01/13 04:33:35;;;;;;;28.40;19.83;;;7.40;87.40;;;;;;4993723;28;20229;-90
2023/01/13 04:36:01;;;;;;;30.47;17.87;;;7.40;87.30;;;;;;4994945;28;20539;-90
2023/01/13 04:38:26;;;;;;;23.23;18.73;;;7.50;87.00;;;;;;4994883;28;20535;-90
2023/01/13 04:40:52;;;;;;;33.13;20.13;;;7.40;87.50;;;;;;4995085;28;20648;-89
2023/01/13 04:43:17;;;;;;;32.60;20.47;;;7.30;87.80;;;;;;4993464;28;20222;-89
2023/01/13 04:45:43;;;;;;;34.63;20.33;;;7.30;87.80;;;;;;4994775;28;20544;-89
2023/01/13 04:48:09;;;;;;;29.53;19.50;;;7.40;87.60;;;;;;4995350;28;20205;-90
2023/01/13 04:50:34;;;;;;;36.23;19.73;;;7.30;88.00;;;;;;4994673;28;20182;-90
2023/01/13 04:53:00;;;;;;;23.97;19.60;;;7.30;88.30;;;;;;4993378;28;20205;-89
2023/01/13 04:55:26;;;;;;;28.97;19.87;;;7.30;88.30;;;;;;4994535;28;20178;-89
2023/01/13 04:57:52;;;;;;;36.97;21.07;;;7.30;88.40;;;;;;4994517;28;20205;-90
2023/01/13 05:00:20;;;;;;;32.47;19.67;;;7.30;88.40;;;;;;4994519;28;20174;-89
2023/01/13 05:02:49;;;;;;;38.47;21.20;;;7.30;88.40;;;;;;4992957;28;20369;-89
2023/01/13 05:05:14;;;;;;;27.53;20.10;;;7.30;88.50;;;;;;4993236;28;20175;-89
2023/01/13 05:07:40;;;;;;;32.70;21.27;;;7.30;88.40;;;;;;4994422;28;20591;-90
2023/01/13 05:10:05;;;;;;;22.47;20.10;;;7.30;88.50;;;;;;4993223;28;20210;-89
2023/01/13 05:18:00;;;;;;;29.00;21.47;;;7.40;88.00;;;;;;4994604;28;20204;-89
2023/01/13 05:20:26;;;;;;;27.87;21.43;;;7.40;88.10;;;;;;4993094;28;20209;-89
2023/01/13 05:25:39;;;;;;;39.33;20.90;;;7.60;87.50;;;;;;4994115;28;20166;-90
2023/01/13 05:28:06;;;;;;;38.37;23.07;;;7.50;87.70;;;;;;4994382;28;20659;-90
2023/01/13 05:30:35;;;;;;;27.73;21.20;;;7.40;87.80;;;;;;4992895;28;20170;-89
2023/01/13 05:33:01;;;;;;;47.70;21.27;;;7.50;87.60;;;;;;4992757;28;20205;-89
2023/01/13 05:35:28;;;;;;;29.87;18.93;;;7.50;87.30;;;;;;4993943;28;20601;-89
2023/01/13 05:37:54;;;;;;;33.77;19.87;;;7.40;87.30;;;;;;4994247;28;20537;-89
2023/01/13 05:43:20;;;;;;;26.90;19.07;;;7.60;86.50;;;;;;4994067;28;20260;-89
2023/01/13 05:45:45;;;;;;;35.93;18.50;;;7.50;86.70;;;;;;4994158;28;20154;-89
2023/01/13 05:48:12;;;;;;;27.83;20.00;;;7.50;87.10;;;;;;4994122;28;20178;-90
2023/01/13 05:50:38;;;;;;;28.90;18.73;;;7.40;87.00;;;;;;4993749;28;20190;-90
2023/01/13 05:53:04;;;;;;;35.83;18.63;;;7.60;86.50;;;;;;4992486;28;20227;-89
2023/01/13 05:55:30;;;;;;;30.00;19.87;;;7.60;86.40;;;;;;4993743;28;20174;-89
2023/01/13 05:57:55;;;;;;;37.30;20.00;;;7.50;86.60;;;;;;4993764;28;20194;-89
2023/01/13 06:00:21;;;;;;;31.40;19.23;;;7.50;86.70;;;;;;4993770;28;20228;-89
2023/01/13 06:02:47;;;;;;;32.13;18.53;;;7.60;86.80;;;;;;4993686;28;20209;-89
2023/01/13 06:05:12;;;;;;;24.70;16.43;;;7.70;86.20;;;;;;4992539;28;20221;-89
2023/01/13 06:07:38;;;;;;;27.90;16.93;;;7.70;86.20;;;;;;4993918;28;20182;-89
2023/01/13 06:10:04;;;;;;;24.53;17.67;;;7.80;85.90;;;;;;4993845;28;20184;-89
2023/01/13 06:12:29;;;;;;;20.70;18.37;;;7.70;85.90;;;;;;4993861;28;20236;-89
2023/01/13 06:14:55;;;;;;;27.07;18.70;;;7.70;86.20;;;;;;4997478;28;20269;-89
2023/01/13 06:17:20;;;;;;;37.13;18.87;;;7.60;86.20;;;;;;4997785;28;20186;-89
2023/01/13 06:19:46;;;;;;;29.90;18.47;;;7.60;86.30;;;;;;4997777;28;20240;-88
2023/01/13 06:22:16;;;;;;;26.70;19.33;;;7.60;86.10;;;;;;4996199;28;20202;-89
2023/01/13 06:24:44;;;;;;;23.53;18.33;;;7.60;85.90;;;;;;4996127;28;20190;-89
2023/01/13 06:27:10;;;;;;;24.23;18.10;;;7.50;86.50;;;;;;4997289;28;20174;-89
2023/01/13 06:29:36;;;;;;;27.43;18.30;;;7.50;86.10;;;;;;4997329;28;20256;-89
2023/01/13 06:32:10;;;;;;;34.10;17.57;;;7.50;86.40;;;;;;4997986;28;20214;-90
2023/01/13 06:34:36;;;;;;;21.70;18.53;;;7.60;85.90;;;;;;4997245;28;20198;-90
2023/01/13 06:37:03;;;;;;;32.40;18.27;;;7.60;86.10;;;;;;4997168;28;20182;-89
2023/01/13 06:39:30;;;;;;;31.57;18.03;;;7.60;85.90;;;;;;4997128;28;20259;-89
2023/01/13 06:44:41;;;;;;;39.33;17.93;;;7.70;85.70;;;;;;4997069;28;20228;-89
2023/01/13 06:47:07;;;;;;;32.20;18.63;;;7.70;85.40;;;;;;4997059;28;20363;-89
2023/01/13 06:49:33;;;;;;;27.13;17.90;;;7.70;85.70;;;;;;4995679;28;20272;-89
2023/01/13 06:51:58;;;;;;;37.33;19.67;;;7.70;85.40;;;;;;4996872;28;20232;-90
2023/01/13 06:54:24;;;;;;;34.10;18.37;;;7.70;85.90;;;;;;4995513;28;20213;-90
2023/01/13 06:56:49;;;;;;;21.73;18.53;;;7.70;85.30;;;;;;4997309;28;20185;-89
2023/01/13 06:59:15;;;;;;;33.20;18.37;;;7.80;84.80;;;;;;4996760;28;20184;-89
2023/01/13 07:01:40;;;;;;;26.83;16.87;;;7.80;84.70;;;;;;4996901;28;20205;-89
2023/01/13 07:04:06;;;;;;;27.23;16.87;;;7.80;84.80;;;;;;4995296;28;20265;-88
2023/01/13 07:06:31;;;;;;;30.97;19.33;;;7.80;85.00;;;;;;4995330;28;20208;-89
2023/01/13 07:08:57;;;;;;;26.27;15.73;;;7.90;84.60;;;;;;4996515;28;20186;-90
2023/01/13 07:11:23;;;;;;;27.53;16.70;;;7.80;84.50;;;;;;4995286;28;20671;-89
2023/01/13 07:16:33;;;;;;;20.73;16.83;;;7.80;84.50;;;;;;4996865;28;20282;-89
2023/01/13 07:18:58;;;;;;;34.73;17.03;;;7.70;84.10;;;;;;4996649;28;20193;-89
2023/01/13 07:21:24;;;;;;;31.80;16.43;;;7.70;84.00;;;;;;4995091;28;20640;-89
2023/01/13 07:23:59;;;;;;;34.43;18.10;;;7.70;84.20;;;;;;4995739;28;20209;-89
2023/01/13 07:26:24;;;;;;;26.60;16.43;;;7.70;84.10;;;;;;4995681;28;20181;-89
2023/01/13 07:28:50;;;;;;;22.90;16.93;;;7.60;84.20;;;;;;4996496;28;20268;-89
2023/01/13 07:31:18;;;;;;;22.03;17.37;;;7.60;84.00;;;;;;4994980;28;20201;-89
2023/01/13 07:33:44;;;;;;;33.70;18.67;;;7.70;84.00;;;;;;4996420;28;20222;-89
2023/01/13 07:36:10;;;;;;;24.43;17.30;;;7.70;83.60;;;;;;4996071;28;20213;-89
2023/01/13 07:38:37;;;;;;;28.70;16.93;;;7.60;83.80;;;;;;4996067;28;20189;-89
2023/01/13 07:43:30;;;;;;;28.43;17.27;;;7.70;83.50;;;;;;4995909;28;20185;-89
2023/01/13 07:43:48;;;;;;;31.77;18.37;;;7.70;83.60;;;;;;4995972;28;20214;-88
2023/01/13 07:46:14;;;;;;;29.33;16.67;;;7.70;83.80;;;;;;4996139;28;20518;-87
2023/01/13 07:48:39;;;;;;;31.37;17.57;;;7.70;84.00;;;;;;4994660;28;20213;-88
2023/01/13 07:51:07;;;;;;;41.87;18.43;;;7.70;83.80;;;;;;4994534;28;20177;-87
2023/01/13 07:53:33;;;;;;;34.80;17.67;;;7.80;83.80;;;;;;4994828;28;20198;-89
2023/01/13 07:56:00;;;;;;;31.73;19.03;;;7.70;84.60;;;;;;4994584;28;20683;-90
2023/01/13 07:58:27;;;;;;;36.67;16.43;;;7.80;84.30;;;;;;4995573;28;20205;-89
2023/01/13 08:00:53;;;;;;;29.33;17.67;;;7.80;84.40;;;;;;4994549;28;20236;-90
2023/01/13 08:03:19;;;;;;;28.30;16.80;;;7.80;84.70;;;;;;4995557;28;20559;-89
2023/01/13 08:05:45;;;;;;;34.17;17.60;;;7.80;84.70;;;;;;4995564;28;20185;-89
2023/01/13 08:08:11;;;;;;;28.83;18.47;;;7.80;84.10;;;;;;4995566;28;20167;-90
2023/01/13 08:10:36;;;;;;;21.93;16.40;;;7.80;84.80;;;;;;4995498;28;20189;-89
2023/01/13 08:13:18;;;;;;;31.03;17.33;;;7.80;84.30;;;;;;4995311;28;20201;-89
2023/01/13 08:15:46;;;;;;;23.43;16.13;;;7.80;84.60;;;;;;4994381;28;20652;-89
2023/01/13 08:18:12;;;;;;;23.60;17.00;;;7.90;84.50;;;;;;4994591;28;20189;-90
2023/01/13 08:20:38;;;;;;;36.67;18.87;;;7.90;84.30;;;;;;4995329;28;20181;-89
2023/01/13 08:23:04;;;;;;;22.70;17.07;;;7.90;84.30;;;;;;4995003;28;20225;-90
2023/01/13 08:25:30;;;;;;;27.87;17.87;;;8.00;84.10;;;;;;4995098;28;20185;-90
2023/01/13 08:27:56;;;;;;;27.47;17.23;;;8.00;83.80;;;;;;4993952;28;20181;-90
2023/01/13 08:30:21;;;;;;;28.67;16.33;;;8.00;83.40;;;;;;4995035;28;20257;-90
2023/01/13 08:32:48;;;;;;;32.93;16.13;;;8.00;83.90;;;;;;4994918;28;20217;-90
2023/01/13 08:35:15;;;;;;;36.30;16.27;;;8.00;83.70;;;;;;4993767;28;20317;-89
2023/01/13 08:37:40;;;;;;;25.77;15.50;;;8.10;83.50;;;;;;4993502;28;20597;-90
2023/01/13 08:40:07;;;;;;;17.67;15.07;;;8.10;83.50;;;;;;4993716;28;20177;-90
2023/01/13 08:42:32;;;;;;;17.33;15.63;;;8.10;83.20;;;;;;4994691;28;20253;-89
2023/01/13 08:44:58;;;;;;;17.27;15.60;;;8.20;82.50;;;;;;4994826;28;20174;-89
2023/01/13 08:47:25;;;;;;;24.57;16.97;;;8.20;82.50;;;;;;4995063;28;20172;-89
2023/01/13 08:49:51;;;;;;;20.40;16.67;;;8.20;82.70;;;;;;4994612;28;20229;-90
2023/01/13 08:52:17;;;;;;;31.97;17.70;;;8.00;83.50;;;;;;4993330;28;20174;-89
2023/01/13 08:54:42;;;;;;;23.77;16.23;;;8.00;83.50;;;;;;4994571;28;20216;-90
2023/01/13 08:57:08;;;;;;;17.80;15.83;;;7.90;83.90;;;;;;4993373;28;20656;-89
2023/01/13 08:59:34;;;;;;;29.80;15.67;;;8.00;83.50;;;;;;4994596;28;20651;-89
2023/01/13 09:01:59;;;;;;;27.87;15.50;;;8.00;83.70;;;;;;4993119;28;20220;-89
2023/01/13 09:04:26;;;;;;;24.40;16.40;;;8.10;83.60;;;;;;4994331;28;20194;-89
2023/01/13 09:06:53;;;;;;;28.93;17.50;;;8.00;83.30;;;;;;4994703;28;20194;-89
2023/01/13 09:09:20;;;;;;;30.23;17.47;;;8.00;84.40;;;;;;4994405;28;20181;-89
2023/01/13 09:14:35;;;;;;;21.00;15.83;;;7.90;84.70;;;;;;4994522;28;20567;-89
2023/01/13 09:17:01;;;;;;;21.70;14.43;;;8.00;84.50;;;;;;4994234;28;20178;-89
2023/01/13 09:19:27;;;;;;;21.97;14.80;;;7.90;84.20;;;;;;4994456;28;20250;-89
2023/01/13 09:21:54;;;;;;;23.80;15.20;;;7.90;84.30;;;;;;4992981;28;20210;-89
2023/01/13 09:24:21;;;;;;;24.33;14.80;;;8.00;83.90;;;;;;4994482;28;20210;-89
2023/01/13 09:26:47;;;;;;;19.93;13.97;;;8.00;83.90;;;;;;4994095;28;20178;-88
2023/01/13 09:29:13;;;;;;;19.10;15.00;;;7.90;83.90;;;;;;4993041;28;20237;-90
2023/01/13 09:31:39;;;;;;;18.60;14.27;;;8.00;83.80;;;;;;4994268;28;20174;-89
2023/01/13 09:36:50;;;;;;;16.27;14.37;;;8.10;82.40;;;;;;4994630;28;20185;-89
2023/01/13 09:39:16;;;;;;;22.97;15.20;;;8.10;82.40;;;;;;4993982;28;20652;-89
2023/01/13 09:44:54;;;;;;;22.43;14.30;;;8.00;83.00;;;;;;4993899;28;20646;-89
2023/01/13 09:47:31;;;;;;;15.33;14.03;;;8.00;82.90;;;;;;4993703;28;20151;-89
2023/01/13 09:50:21;;;;;;;17.40;15.57;;;8.10;82.40;;;;;;4992679;28;20265;-89
2023/01/13 09:52:47;;;;;;;21.23;14.77;;;8.10;82.50;;;;;;4994004;28;20213;-89
2023/01/13 09:55:24;;;;;;;18.57;14.07;;;8.10;82.20;;;;;;4993509;28;20177;-89
2023/01/13 09:57:49;;;;;;;15.30;13.13;;;8.10;82.60;;;;;;4994086;28;20188;-89
2023/01/13 10:00:43;;;;;;;19.50;14.70;;;8.10;82.60;;;;;;4994120;28;20656;-89
2023/01/13 10:03:18;;;;;;;23.37;15.40;;;8.10;81.90;;;;;;4992261;28;20214;-89
2023/01/13 10:05:55;;;;;;;15.93;14.20;;;8.10;82.50;;;;;;4994133;28;20161;-89
2023/01/13 10:08:46;;;;;;;17.60;15.23;;;8.10;81.70;;;;;;4994030;28;20233;-89
2023/01/13 10:14:08;;;;;;;16.97;15.27;;;8.20;81.10;;;;;;4994178;28;20213;-88
2023/01/13 10:16:42;;;;;;;15.87;14.27;;;8.20;81.90;;;;;;4993917;28;20169;-87
2023/01/13 10:19:17;;;;;;;15.97;14.30;;;8.20;82.60;;;;;;4992576;28;20166;-90
2023/01/13 10:21:58;;;;;;;15.60;14.10;;;8.10;82.40;;;;;;4993769;28;20201;-89
2023/01/13 10:25:00;;;;;;;22.00;14.37;;;8.10;82.80;;;;;;4993466;28;20276;-89
2023/01/13 10:27:36;;;;;;;21.53;14.53;;;8.10;83.80;;;;;;4993581;28;20185;-89
2023/01/13 10:30:29;;;;;;;17.57;15.80;;;8.10;83.90;;;;;;4992533;28;20165;-89
2023/01/13 10:32:58;;;;;;;19.87;15.00;;;8.10;83.80;;;;;;4993802;28;20252;-89
2023/01/13 10:35:45;;;;;;;26.27;14.77;;;8.20;83.40;;;;;;4993529;28;20178;-89
2023/01/13 10:38:22;;;;;;;16.40;14.70;;;8.20;83.30;;;;;;4992529;28;20659;-89
2023/01/13 10:41:02;;;;;;;16.90;14.50;;;8.20;83.70;;;;;;4992339;28;20170;-89
2023/01/13 10:43:29;;;;;;;17.67;14.30;;;8.20;83.90;;;;;;4993290;28;20280;-89
2023/01/13 10:46:10;;;;;;;25.73;15.00;;;8.20;84.00;;;;;;4992198;28;20182;-89
2023/01/13 10:48:50;;;;;;;18.90;14.40;;;8.20;84.00;;;;;;4993694;28;20513;-88
2023/01/13 10:51:20;;;;;;;18.17;14.17;;;8.20;83.50;;;;;;4992129;28;20178;-89
2023/01/13 10:53:51;;;;;;;14.57;13.10;;;8.20;83.60;;;;;;4993244;28;20190;-89
2023/01/13 10:56:18;;;;;;;15.47;14.27;;;8.30;84.40;;;;;;4992126;28;20637;-89
2023/01/13 10:58:44;;;;;;;16.67;14.90;;;8.20;85.30;;;;;;4993771;28;20206;-89
2023/01/13 11:01:26;;;;;;;14.30;13.00;;;8.20;84.90;;;;;;4995573;28;20282;-89
2023/01/13 11:03:53;;;;;;;19.37;14.77;;;8.20;85.40;;;;;;4996649;28;20206;-89
2023/01/13 11:06:25;;;;;;;15.80;14.10;;;8.30;85.00;;;;;;4995492;28;20177;-89
2023/01/13 11:08:54;;;;;;;14.57;13.10;;;8.30;85.00;;;;;;4996726;28;20159;-89
2023/01/13 11:11:41;;;;;;;18.23;13.93;;;8.30;84.40;;;;;;4996567;28;20591;-89
2023/01/13 11:14:38;;;;;;;15.47;13.83;;;8.30;84.50;;;;;;4997145;28;20198;-89
2023/01/13 11:17:40;;;;;;;15.63;13.90;;;8.30;84.80;;;;;;4991677;28;20256;-89
2023/01/13 11:20:31;;;;;;;15.27;13.83;;;8.30;85.30;;;;;;4995271;28;20248;-88
2023/01/13 11:23:01;;;;;;;14.43;13.17;;;8.20;85.80;;;;;;4995047;28;20582;-89
2023/01/13 11:25:40;;;;;;;20.83;14.23;;;8.20;85.60;;;;;;4996356;28;20166;-89
2023/01/13 11:28:42;;;;;;;22.73;14.30;;;8.20;85.60;;;;;;4996560;28;20624;-89
2023/01/13 11:31:11;;;;;;;20.60;15.17;;;8.20;85.50;;;;;;4995132;28;20228;-89
2023/01/13 11:34:17;;;;;;;24.60;14.73;;;8.10;85.80;;;;;;4996103;28;20221;-89
2023/01/13 11:36:49;;;;;;;17.00;14.50;;;8.10;85.50;;;;;;4936349;29;20194;-89
2023/01/13 11:39:33;;;;;;;16.00;14.30;;;8.10;85.60;;;;;;4998420;28;20194;-89
2023/01/13 11:42:20;;;;;;;17.10;15.33;;;8.00;85.70;;;;;;4994836;28;20288;-89
2023/01/13 11:45:04;;;;;;;16.40;14.77;;;8.10;86.00;;;;;;4994930;28;20178;-89
2023/01/13 11:47:31;;;;;;;15.27;13.87;;;8.10;86.00;;;;;;4994845;28;20178;-88
2023/01/13 11:49:57;;;;;;;16.57;14.60;;;8.00;85.90;;;;;;4994728;28;20178;-89
2023/01/13 11:52:56;;;;;;;16.87;14.93;;;8.00;87.00;;;;;;4995739;28;20178;-89
2023/01/13 11:55:48;;;;;;;21.87;15.70;;;8.00;86.60;;;;;;4996132;28;20178;-88
2023/01/13 11:58:30;;;;;;;21.70;15.77;;;7.90;87.30;;;;;;4958652;28;20663;-87
2023/01/13 12:01:22;;;;;;;20.97;16.93;;;7.80;87.70;;;;;;4995767;28;20174;-87
2023/01/13 12:04:42;;;;;;;19.23;16.27;;;7.80;88.50;;;;;;4994731;28;20256;-87
2023/01/13 12:07:35;;;;;;;21.20;17.30;;;7.80;88.30;;;;;;4972278;28;20197;-90
2023/01/13 12:10:27;;;;;;;18.13;16.60;;;7.70;88.70;;;;;;4995461;28;20221;-88
2023/01/13 12:13:34;;;;;;;21.53;18.70;;;7.70;88.90;;;;;;4995200;28;20671;-89
2023/01/13 12:16:25;;;;;;;24.17;20.50;;;7.70;89.50;;;;;;4974508;28;20228;-88
2023/01/13 12:19:23;;;;;;;27.37;20.47;;;7.60;89.80;;;;;;4995307;28;20181;-89
2023/01/13 12:22:12;;;;;;;23.67;20.93;;;7.60;90.10;;;;;;4994200;28;20551;-90
2023/01/13 12:24:56;;;;;;;25.17;22.73;;;7.60;90.50;;;;;;4994440;28;20202;-89
2023/01/13 12:27:40;;;;;;;23.80;21.63;;;7.60;90.60;;;;;;4995423;28;20158;-89
2023/01/13 12:30:46;;;;;;;22.23;19.80;;;7.60;90.50;;;;;;4995275;28;20593;-90
2023/01/13 12:33:32;;;;;;;29.60;22.43;;;7.50;90.70;;;;;;4994599;28;20214;-90
2023/01/13 12:36:26;;;;;;;30.93;24.07;;;7.50;91.10;;;;;;4964942;28;20340;-90
2023/01/13 12:38:57;;;;;;;25.67;19.30;;;7.50;91.20;;;;;;4992192;28;20190;-89
2023/01/13 12:41:25;;;;;;;23.23;20.87;;;7.50;90.90;;;;;;4995232;28;20620;-88
2023/01/13 12:46:52;;;;;;;24.37;22.23;;;7.50;90.60;;;;;;4995342;28;20162;-88
2023/01/13 12:49:26;;;;;;;21.57;19.87;;;7.50;90.90;;;;;;4994071;28;20201;-89
2023/01/13 12:51:55;;;;;;;24.57;22.07;;;7.50;91.00;;;;;;4993527;28;20170;-90
2023/01/13 12:54:29;;;;;;;26.17;23.00;;;7.50;91.00;;;;;;4994881;28;20190;-88
2023/01/13 12:56:59;;;;;;;24.80;21.83;;;7.50;91.10;;;;;;4994691;28;20584;-89
2023/01/13 12:59:24;;;;;;;22.77;20.37;;;7.50;90.90;;;;;;4993396;28;20644;-88
2023/01/13 13:02:09;;;;;;;21.60;19.93;;;7.50;90.60;;;;;;4993235;28;20232;-88
2023/01/13 13:04:44;;;;;;;21.50;19.20;;;7.60;90.50;;;;;;4993087;28;20193;-88
2023/01/13 13:07:16;;;;;;;20.13;18.40;;;7.60;90.30;;;;;;4994478;28;20227;-88
2023/01/13 13:09:50;;;;;;;21.30;19.23;;;7.60;90.20;;;;;;4994086;28;20617;-89
2023/01/13 13:15:34;;;;;;;20.37;17.40;;;7.60;90.40;;;;;;4994776;28;20262;-90
2023/01/13 13:18:32;;;;;;;18.33;16.63;;;7.70;90.10;;;;;;4994272;28;20655;-89
2023/01/13 13:21:35;;;;;;;;;;;;;;;;;;;;;
2023/01/13 13:24:03;;;;;;;18.13;16.50;;;7.70;89.50;;;;;;4993753;28;20225;-90
2023/01/13 13:26:37;;;;;;;21.23;16.67;;;7.70;89.20;;;;;;4994202;28;20551;-89
2023/01/13 13:29:23;;;;;;;18.27;15.43;;;7.70;89.10;;;;;;4994185;28;20196;-90
2023/01/13 13:32:16;;;;;;;16.03;14.67;;;7.80;88.70;;;;;;4992867;28;20209;-89
2023/01/13 13:35:14;;;;;;;17.23;15.80;;;7.80;88.90;;;;;;4992740;28;20187;-88
2023/01/13 13:47:09;;;;;;;20.57;16.27;;;7.90;88.70;;;;;;4994523;28;20164;-90
2023/01/13 13:49:40;;;;;;;18.50;16.90;;;7.90;88.60;;;;;;4992618;28;20244;-89
2023/01/13 13:52:14;;;;;;;17.83;15.87;;;7.90;89.00;;;;;;4993912;28;20205;-89
2023/01/13 13:54:42;;;;;;;20.13;16.30;;;7.90;88.90;;;;;;4992676;28;20206;-90
2023/01/13 13:57:33;;;;;;;17.13;15.37;;;7.90;88.40;;;;;;4993826;28;20182;-89
2023/01/13 13:59:59;;;;;;;20.83;16.77;;;7.90;88.60;;;;;;4993693;28;20178;-91